createdAt,value
2022-10-23T00:03:48.254Z,99271.03
2022-10-23T00:07:52.564Z,99263.47
2022-10-23T00:11:54.879Z,99263.41
2022-10-23T00:15:57.054Z,99259.38
2022-10-23T00:20:01.470Z,99256.88
2022-10-23T00:24:04.096Z,99255.03
2022-10-23T00:28:06.237Z,99248.75
2022-10-23T00:32:08.270Z,99256.59
2022-10-23T00:36:15.045Z,99271.03
2022-10-23T00:40:19.268Z,99274.34
2022-10-23T00:44:21.393Z,99270.28
2022-10-23T00:48:30.015Z,99262.06
2022-10-23T00:52:41.703Z,99260.06
2022-10-23T00:56:45.713Z,99254.66
2022-10-23T01:00:51.541Z,99259.50
2022-10-23T01:04:55.528Z,99273.50
2022-10-23T01:09:09.303Z,99265.22
2022-10-23T01:13:24.802Z,99273.81
2022-10-23T01:17:49.411Z,99269.59
2022-10-23T01:22:08.405Z,99258.25
2022-10-23T01:26:22.943Z,99248.44
2022-10-23T01:30:25.452Z,99263.91
2022-10-23T01:34:41.666Z,99264.75
2022-10-23T01:38:56.149Z,99252.06
2022-10-23T01:43:05.486Z,99253.88
2022-10-23T01:47:10.059Z,99246.28
2022-10-23T01:51:27.504Z,99251.69
2022-10-23T01:55:32.916Z,99249.66
2022-10-23T01:59:42.726Z,99247.84
2022-10-23T02:03:45.939Z,99235.38
2022-10-23T02:07:48.748Z,99240.66
2022-10-23T02:12:15.800Z,99249.31
2022-10-23T02:17:07.065Z,99249.50
2022-10-23T02:21:21.224Z,99239.13
2022-10-23T02:25:33.805Z,99233.09
2022-10-23T02:29:44.197Z,99227.63
2022-10-23T02:33:48.097Z,99229.69
2022-10-23T02:38:30.040Z,99226.31
2022-10-23T02:42:39.123Z,99221.44
2022-10-23T02:47:25.166Z,99229.00
2022-10-23T02:51:43.209Z,99231.13
2022-10-23T02:56:03.462Z,99230.03
2022-10-23T03:00:15.665Z,99234.41
2022-10-23T03:04:19.783Z,99230.94
2022-10-23T03:08:22.845Z,99223.66
2022-10-23T03:12:24.868Z,99233.75
2022-10-23T03:16:27.367Z,99237.06
2022-10-23T03:20:30.685Z,99228.13
2022-10-23T03:24:32.690Z,99222.44
2022-10-23T03:28:35.599Z,99221.22
2022-10-23T03:32:37.702Z,99228.72
2022-10-23T03:36:41.114Z,99232.53
2022-10-23T03:40:44.611Z,99245.69
2022-10-23T03:44:48.068Z,99236.50
2022-10-23T03:48:50.084Z,99238.41
2022-10-23T03:52:54.106Z,99247.50
2022-10-23T03:56:57.634Z,99250.50
2022-10-23T04:01:01.221Z,99243.28
2022-10-23T04:05:03.602Z,99249.53
2022-10-23T04:09:06.579Z,99248.75
2022-10-23T04:13:08.907Z,99236.06
2022-10-23T04:17:12.329Z,99235.56
2022-10-23T04:21:14.675Z,99243.56
2022-10-23T04:25:16.836Z,99239.50
2022-10-23T04:29:22.621Z,99242.47
2022-10-23T04:33:25.105Z,99248.16
2022-10-23T04:37:28.272Z,99248.94
2022-10-23T04:41:30.245Z,99244.16
2022-10-23T04:45:32.173Z,99242.56
2022-10-23T04:49:34.213Z,99250.13
2022-10-23T04:53:47.752Z,99249.47
2022-10-23T04:58:19.131Z,99245.69
2022-10-23T05:02:21.316Z,99253.19
2022-10-23T05:06:25.042Z,99242.41
2022-10-23T05:10:50.955Z,99246.50
2022-10-23T05:19:51.301Z,99223.41
2022-10-23T05:23:54.526Z,99244.91
2022-10-23T05:27:57.366Z,99244.38
2022-10-23T05:32:03.546Z,99243.28
2022-10-23T05:36:08.059Z,99244.09
2022-10-23T05:40:10.671Z,99248.75
2022-10-23T05:44:15.604Z,99246.84
2022-10-23T05:48:35.735Z,99246.84
2022-10-23T05:52:46.632Z,99249.47
2022-10-23T05:57:07.169Z,99243.16
2022-10-23T06:01:23.219Z,99247.00
2022-10-23T06:05:35.689Z,99265.72
2022-10-23T06:10:13.678Z,99265.41
2022-10-23T06:14:19.736Z,99268.84
2022-10-23T06:18:24.298Z,99269.16
2022-10-23T06:22:34.509Z,99280.34
2022-10-23T06:26:50.271Z,99288.19
2022-10-23T06:30:56.760Z,99288.19
2022-10-23T06:34:58.947Z,99297.94
2022-10-23T06:39:01.398Z,99297.50
2022-10-23T06:43:23.310Z,99301.06
2022-10-23T06:47:52.061Z,99300.16
2022-10-23T06:52:46.502Z,99309.81
2022-10-23T06:56:53.776Z,99314.09
2022-10-23T07:01:11.373Z,99325.63
2022-10-23T07:05:14.604Z,99321.22
2022-10-23T07:09:18.191Z,99319.72
2022-10-23T07:13:29.264Z,99314.66
2022-10-23T07:17:35.464Z,99311.31
2022-10-23T07:21:38.387Z,99324.97
2022-10-23T07:25:55.935Z,99313.63
2022-10-23T07:29:58.687Z,99318.72
2022-10-23T07:34:07.327Z,99329.22
2022-10-23T07:38:09.857Z,99337.84
2022-10-23T07:42:16.598Z,99340.16
2022-10-23T07:46:19.809Z,99337.31
2022-10-23T07:50:23.058Z,99351.16
2022-10-23T07:54:25.146Z,99343.97
2022-10-23T07:58:36.501Z,99352.31
2022-10-23T08:02:47.148Z,99356.53
2022-10-23T08:06:49.218Z,99355.09
2022-10-23T08:10:53.786Z,99354.94
2022-10-23T08:15:02.063Z,99353.09
2022-10-23T08:19:13.087Z,99354.06
2022-10-23T08:23:18.571Z,99358.94
2022-10-23T08:27:20.670Z,99356.56
2022-10-23T08:31:24.669Z,99370.03
2022-10-23T08:35:52.617Z,99376.78
2022-10-23T08:40:03.999Z,99373.16
2022-10-23T08:44:50.192Z,99379.00
2022-10-23T08:49:07.131Z,99388.06
2022-10-23T08:53:22.420Z,99372.16
2022-10-23T08:57:33.521Z,99370.16
2022-10-23T09:01:52.778Z,99356.97
2022-10-23T09:06:06.040Z,99357.94
2022-10-23T09:10:49.260Z,99366.56
2022-10-23T09:15:08.550Z,99361.28
2022-10-23T09:19:26.360Z,99356.47
2022-10-23T09:23:28.794Z,99368.28
2022-10-23T09:27:30.803Z,99372.09
2022-10-23T09:31:32.708Z,99374.34
2022-10-23T09:35:34.827Z,99371.28
2022-10-23T09:39:36.967Z,99371.63
2022-10-23T09:43:39.235Z,99371.22
2022-10-23T09:47:42.965Z,99379.47
2022-10-23T09:52:09.885Z,99377.75
2022-10-23T09:56:27.134Z,99373.41
2022-10-23T10:00:29.263Z,99376.56
2022-10-23T10:04:37.390Z,99383.44
2022-10-23T10:08:52.200Z,99375.06
2022-10-23T10:13:01.657Z,99373.16
2022-10-23T10:17:11.533Z,99378.22
2022-10-23T10:21:41.488Z,99377.06
2022-10-23T10:25:59.771Z,99373.06
2022-10-23T10:30:14.774Z,99369.03
2022-10-23T10:34:39.114Z,99373.84
2022-10-23T10:38:50.390Z,99364.75
2022-10-23T10:43:23.473Z,99357.06
2022-10-23T10:47:25.692Z,99359.00
2022-10-23T10:51:51.008Z,99354.69
2022-10-23T10:55:55.784Z,99351.94
2022-10-23T11:00:05.045Z,99346.53
2022-10-23T11:04:22.239Z,99342.44
2022-10-23T11:08:29.518Z,99342.06
2022-10-23T11:12:32.756Z,99329.03
2022-10-23T11:16:39.758Z,99325.84
2022-10-23T11:20:44.618Z,99321.28
2022-10-23T11:25:01.817Z,99327.88
2022-10-23T11:29:21.682Z,99315.19
2022-10-23T11:33:48.729Z,99307.72
2022-10-23T11:38:12.680Z,99303.00
2022-10-23T11:42:32.969Z,99298.19
2022-10-23T11:46:37.316Z,99297.38
2022-10-23T11:50:45.369Z,99293.47
2022-10-23T11:54:47.400Z,99282.22
2022-10-23T11:59:30.453Z,99279.28
2022-10-23T12:03:49.026Z,99277.91
2022-10-23T12:07:56.855Z,99270.09
2022-10-23T12:12:15.872Z,99266.47
2022-10-23T12:16:17.807Z,99259.97
2022-10-23T12:20:35.405Z,99247.25
2022-10-23T12:24:49.386Z,99250.88
2022-10-23T12:28:59.111Z,99243.34
2022-10-23T12:33:26.929Z,99230.66
2022-10-23T12:38:04.724Z,99234.41
2022-10-23T12:42:23.575Z,99224.91
2022-10-23T12:46:30.635Z,99223.66
2022-10-23T12:50:34.477Z,99224.22
2022-10-23T12:54:39.671Z,99219.53
2022-10-23T12:58:52.505Z,99220.09
2022-10-23T13:03:02.323Z,99218.91
2022-10-23T13:07:04.648Z,99216.53
2022-10-23T13:11:14.467Z,99214.38
2022-10-23T13:15:20.221Z,99210.16
2022-10-23T13:19:24.071Z,99206.84
2022-10-23T13:23:25.980Z,99201.38
2022-10-23T13:27:33.357Z,99197.53
2022-10-23T13:31:35.725Z,99192.09
2022-10-23T13:35:37.868Z,99191.84
2022-10-23T13:39:39.787Z,99185.38
2022-10-23T13:43:42.922Z,99190.22
2022-10-23T13:47:45.435Z,99192.50
2022-10-23T13:51:56.471Z,99187.97
2022-10-23T13:55:58.877Z,99179.44
2022-10-23T14:00:00.932Z,99186.56
2022-10-23T14:04:04.510Z,99182.25
2022-10-23T14:08:06.591Z,99174.69
2022-10-23T14:12:08.818Z,99174.13
2022-10-23T14:16:13.747Z,99179.31
2022-10-23T14:20:18.985Z,99170.03
2022-10-23T14:24:23.457Z,99167.47
2022-10-23T14:28:25.348Z,99172.13
2022-10-23T14:32:27.458Z,99168.44
2022-10-23T14:36:38.610Z,99160.28
2022-10-23T14:40:51.952Z,99159.16
2022-10-23T14:44:54.120Z,99158.47
2022-10-23T14:48:58.736Z,99160.06
2022-10-23T14:53:04.367Z,99160.72
2022-10-23T14:57:06.371Z,99163.16
2022-10-23T15:01:08.580Z,99159.50
2022-10-23T15:05:10.740Z,99164.03
2022-10-23T15:09:14.055Z,99163.38
2022-10-23T15:13:16.024Z,99161.41
2022-10-23T15:17:18.012Z,99164.81
2022-10-23T15:21:20.100Z,99157.22
2022-10-23T15:25:22.060Z,99163.63
2022-10-23T15:29:24.018Z,99157.91
2022-10-23T15:33:26.538Z,99145.44
2022-10-23T15:37:28.646Z,99147.38
2022-10-23T15:41:32.894Z,99155.00
2022-10-23T15:45:34.880Z,99151.53
2022-10-23T15:49:37.125Z,99156.22
2022-10-23T15:53:39.488Z,99155.00
2022-10-23T15:57:41.549Z,99148.78
2022-10-23T16:01:43.621Z,99155.41
2022-10-23T16:05:45.825Z,99159.59
2022-10-23T16:09:47.854Z,99161.53
2022-10-23T16:13:50.131Z,99159.94
2022-10-23T16:17:52.509Z,99161.41
2022-10-23T16:21:54.603Z,99166.34
2022-10-23T16:25:56.736Z,99167.13
2022-10-23T16:29:59.100Z,99173.22
2022-10-23T16:34:03.561Z,99174.78
2022-10-23T16:38:06.051Z,99187.06
2022-10-23T16:42:08.153Z,99190.88
2022-10-23T16:46:23.604Z,99186.72
2022-10-23T16:50:25.543Z,99200.28
2022-10-23T16:54:27.631Z,99194.81
2022-10-23T16:58:29.676Z,99199.41
2022-10-23T17:02:32.054Z,99200.97
2022-10-23T17:06:34.686Z,99202.53
2022-10-23T17:10:36.782Z,99211.44
2022-10-23T17:14:39.495Z,99208.66
2022-10-23T17:18:44.130Z,99218.16
2022-10-23T17:22:46.277Z,99221.31
2022-10-23T17:26:48.542Z,99220.25
2022-10-23T17:30:50.845Z,99233.94
2022-10-23T17:34:52.931Z,99229.94
2022-10-23T17:38:55.632Z,99235.25
2022-10-23T17:42:57.646Z,99245.38
2022-10-23T17:46:59.775Z,99243.00
2022-10-23T17:51:14.040Z,99241.09
2022-10-23T17:55:16.138Z,99246.13
2022-10-23T17:59:21.493Z,99246.34
2022-10-23T18:03:23.487Z,99247.75
2022-10-23T18:07:26.629Z,99245.38
2022-10-23T18:11:32.280Z,99248.25
2022-10-23T18:15:35.800Z,99259.72
2022-10-23T18:19:37.859Z,99254.63
2022-10-23T18:23:40.264Z,99254.31
2022-10-23T18:27:42.940Z,99250.75
2022-10-23T18:31:45.895Z,99247.75
2022-10-23T18:35:48.883Z,99248.72
2022-10-23T18:39:50.957Z,99249.63
2022-10-23T18:43:54.427Z,99245.41
2022-10-23T18:47:56.753Z,99252.34
2022-10-23T18:51:58.728Z,99252.47
2022-10-23T18:56:00.882Z,99237.78
2022-10-23T19:00:05.913Z,99255.56
2022-10-23T19:04:08.511Z,99252.31
2022-10-23T19:08:11.257Z,99249.16
2022-10-23T19:16:38.847Z,99249.28
2022-10-23T19:20:43.554Z,99254.91
2022-10-23T19:24:48.941Z,99246.13
2022-10-23T19:32:59.928Z,99250.22
2022-10-23T19:37:02.160Z,99250.13
2022-10-23T19:41:04.891Z,99254.91
2022-10-23T19:45:11.934Z,99258.22
2022-10-23T19:49:17.941Z,99257.44
2022-10-23T19:53:20.354Z,99257.81
2022-10-23T19:57:22.869Z,99245.25
2022-10-23T20:01:26.134Z,99251.75
2022-10-23T20:05:28.393Z,99248.75
2022-10-23T20:09:30.959Z,99249.72
2022-10-23T20:13:33.257Z,99250.44
2022-10-23T20:17:35.987Z,99248.75
2022-10-23T20:21:43.728Z,99254.94
2022-10-23T20:25:45.780Z,99258.44
2022-10-23T20:29:49.266Z,99261.25
2022-10-23T20:33:52.262Z,99267.47
2022-10-23T20:37:54.257Z,99265.44
2022-10-23T20:41:56.978Z,99268.13
2022-10-23T20:46:04.467Z,99277.19
2022-10-23T20:50:07.191Z,99282.69
2022-10-23T20:54:09.153Z,99268.78
2022-10-23T20:58:11.146Z,99274.94
2022-10-23T21:02:13.234Z,99290.69
2022-10-23T21:06:16.159Z,99294.50
2022-10-23T21:10:18.236Z,99295.50
2022-10-23T21:14:20.503Z,99292.00
2022-10-23T21:18:27.305Z,99297.81
2022-10-23T21:22:35.821Z,99301.34
2022-10-23T21:26:37.796Z,99308.13
2022-10-23T21:30:41.241Z,99302.63
2022-10-23T21:34:43.329Z,99303.78
2022-10-23T21:38:47.831Z,99307.22
2022-10-23T21:42:49.877Z,99298.38
2022-10-23T21:46:51.839Z,99305.72
2022-10-23T21:51:00.454Z,99298.44
2022-10-23T21:55:02.537Z,99304.91
2022-10-23T22:03:13.402Z,99296.22
2022-10-23T22:07:15.694Z,99291.34
2022-10-23T22:11:18.286Z,99294.28
2022-10-23T22:15:20.450Z,99296.91
2022-10-23T22:19:23.776Z,99298.06
2022-10-23T22:23:25.983Z,99296.47
2022-10-23T22:27:28.256Z,99299.16
2022-10-23T22:31:31.960Z,99294.28
2022-10-23T22:35:33.935Z,99300.59
2022-10-23T22:39:35.961Z,99298.41
2022-10-23T22:43:37.985Z,99289.88
2022-10-23T22:47:40.059Z,99290.72
2022-10-23T22:51:42.006Z,99299.88
2022-10-23T22:55:43.917Z,99303.09
2022-10-23T22:59:45.900Z,99307.41
2022-10-23T23:03:49.106Z,99295.63
2022-10-23T23:07:51.158Z,99293.81
2022-10-23T23:11:53.156Z,99291.66
2022-10-23T23:15:56.178Z,99290.94
2022-10-23T23:19:58.690Z,99285.59
2022-10-23T23:24:00.642Z,99286.63
2022-10-23T23:28:02.766Z,99291.22
2022-10-23T23:32:06.238Z,99290.69
2022-10-23T23:36:10.982Z,99290.91
2022-10-23T23:40:13.981Z,99289.53
2022-10-23T23:44:16.026Z,99291.94
2022-10-23T23:48:17.958Z,99289.75
2022-10-23T23:52:20.033Z,99287.31
2022-10-23T23:56:22.547Z,99274.88
